Time;durP1;ratioP1;P1;durP2;ratioP2;P2;SDS_P1;SDS_P2;PMS_P1;PMS_P2;Temp;Humidity;BMP_temperature;BMP_pressure;BME280_temperature;BME280_humidity;BME280_pressure;Samples;Min_cycle;Max_cycle;Signal;HPM_P1;HPM_P2
2024/03/02 00:01:20;;;;;;;5.10;3.60;;;6.90;1.00;;;;;;5053749;28;20458;-66
2024/03/02 00:03:50;;;;;;;4.37;3.40;;;6.90;1.00;;;;;;5053753;28;20542;-67
2024/03/02 00:06:21;;;;;;;3.90;3.07;;;7.00;1.00;;;;;;5052746;28;20555;-65
2024/03/02 00:08:48;;;;;;;5.20;3.47;;;7.00;1.00;;;;;;5052287;28;20462;-66
2024/03/02 00:11:16;;;;;;;4.23;3.50;;;7.00;1.00;;;;;;5052381;28;20848;-66
2024/03/02 00:13:43;;;;;;;5.07;3.10;;;7.00;1.00;;;;;;5053213;28;20490;-67
2024/03/02 00:16:12;;;;;;;5.53;3.27;;;7.00;1.00;;;;;;5052372;28;20458;-67
2024/03/02 00:18:39;;;;;;;4.20;3.57;;;7.00;1.00;;;;;;5056864;28;20458;-67
2024/03/02 00:21:10;;;;;;;3.07;2.70;;;7.00;99.90;;;;;;5056399;28;20458;-66
2024/03/02 00:23:38;;;;;;;3.47;2.67;;;7.00;99.90;;;;;;5054996;28;20454;-67
2024/03/02 00:26:08;;;;;;;3.73;3.00;;;7.00;99.90;;;;;;5055199;28;20600;-66
2024/03/02 00:28:37;;;;;;;3.80;2.80;;;7.10;99.90;;;;;;5055531;28;20462;-66
2024/03/02 00:31:06;;;;;;;4.43;2.53;;;7.20;99.90;;;;;;5054743;28;20546;-67
2024/03/02 00:33:36;;;;;;;3.10;2.60;;;7.20;99.90;;;;;;5054733;28;20482;-66
2024/03/02 00:36:04;;;;;;;4.47;2.20;;;7.20;99.90;;;;;;5055555;28;20432;-67
2024/03/02 00:38:32;;;;;;;5.83;2.70;;;7.20;99.90;;;;;;5057067;28;20454;-67
2024/03/02 00:41:01;;;;;;;3.47;2.80;;;7.30;99.90;;;;;;5056431;28;20465;-67
2024/03/02 00:43:44;;;;;;;3.83;2.77;;;7.40;99.90;;;;;;5056163;28;20481;-66
2024/03/02 00:46:13;;;;;;;4.40;2.83;;;7.40;99.90;;;;;;5056794;28;20753;-67
2024/03/02 00:48:48;;;;;;;3.17;2.27;;;7.40;99.90;;;;;;5056881;28;20745;-66
2024/03/02 00:51:16;;;;;;;5.13;3.00;;;7.40;99.90;;;;;;5056264;28;20458;-67
2024/03/02 00:53:43;;;;;;;3.50;2.30;;;7.40;99.90;;;;;;5056482;28;20493;-66
2024/03/02 00:56:12;;;;;;;5.00;2.70;;;7.40;99.90;;;;;;5038345;28;20743;-67
2024/03/02 00:58:40;;;;;;;4.10;2.60;;;7.40;99.90;;;;;;5056653;28;20465;-66
2024/03/02 01:01:08;;;;;;;4.30;2.87;;;7.40;93.80;;;;;;5056325;28;20466;-66
2024/03/02 01:03:34;;;;;;;3.13;2.40;;;7.40;83.10;;;;;;5055954;28;20553;-67
2024/03/02 01:06:03;;;;;;;3.23;2.40;;;7.40;61.10;;;;;;5056491;28;20463;-67
2024/03/02 01:08:30;;;;;;;3.80;2.87;;;7.40;27.60;;;;;;5054077;28;20504;-66
2024/03/02 01:10:57;;;;;;;3.23;2.10;;;7.40;1.00;;;;;;5042715;28;20487;-66
2024/03/02 01:13:25;;;;;;;4.37;2.60;;;7.50;1.00;;;;;;5034562;28;20563;-65
2024/03/02 01:15:53;;;;;;;2.80;2.13;;;7.50;1.00;;;;;;5035169;28;20459;-66
2024/03/02 01:18:20;;;;;;;4.40;2.60;;;7.50;1.00;;;;;;5035867;28;20520;-64
2024/03/02 01:20:48;;;;;;;4.20;2.50;;;7.50;1.00;;;;;;5034973;28;20562;-66
2024/03/02 01:23:17;;;;;;;4.23;2.40;;;7.50;1.00;;;;;;5036196;28;20770;-66
2024/03/02 01:25:44;;;;;;;6.00;2.70;;;7.40;1.00;;;;;;5034877;28;20463;-65
2024/03/02 01:28:11;;;;;;;4.00;2.80;;;7.50;1.00;;;;;;5034377;28;20500;-66
2024/03/02 01:30:38;;;;;;;7.60;2.83;;;7.50;1.00;;;;;;5033923;28;20512;-65
2024/03/02 01:33:06;;;;;;;3.07;2.40;;;7.50;1.00;;;;;;5034046;28;20817;-65
2024/03/02 01:35:34;;;;;;;3.20;2.23;;;7.50;1.00;;;;;;5036555;28;20468;-66
2024/03/02 01:38:02;;;;;;;3.80;2.67;;;7.60;1.00;;;;;;5052855;28;20462;-66
2024/03/02 01:40:31;;;;;;;4.03;2.77;;;7.60;1.00;;;;;;5054411;28;20502;-66
2024/03/02 01:42:59;;;;;;;3.03;2.40;;;7.50;1.00;;;;;;5055356;28;20947;-67
2024/03/02 01:45:26;;;;;;;3.47;2.17;;;7.50;1.00;;;;;;5055104;28;20462;-67
2024/03/02 01:47:53;;;;;;;4.23;3.00;;;7.50;1.00;;;;;;5055530;28;20469;-66
2024/03/02 01:50:27;;;;;;;4.00;2.60;;;7.50;1.00;;;;;;5055545;28;20463;-67
2024/03/02 01:52:55;;;;;;;4.47;2.50;;;7.50;1.00;;;;;;5055839;28;20868;-66
2024/03/02 01:55:22;;;;;;;6.87;2.50;;;7.40;1.00;;;;;;5054967;28;20493;-66
2024/03/02 01:57:51;;;;;;;3.83;2.57;;;7.40;1.00;;;;;;5055444;28;20462;-67
2024/03/02 02:00:20;;;;;;;3.83;2.10;;;7.40;1.00;;;;;;5055420;28;20462;-67
2024/03/02 02:02:48;;;;;;;7.20;2.60;;;7.40;1.00;;;;;;5055357;28;20553;-66
2024/03/02 02:05:16;;;;;;;2.70;2.00;;;7.40;1.00;;;;;;5055197;28;20455;-67
2024/03/02 02:07:43;;;;;;;3.30;2.10;;;7.40;1.00;;;;;;5055141;28;20549;-67
2024/03/02 02:10:11;;;;;;;3.37;2.20;;;7.40;1.00;;;;;;5055463;28;20557;-67
2024/03/02 02:12:39;;;;;;;4.57;2.53;;;7.40;1.00;;;;;;5055244;28;20891;-66
2024/03/02 02:15:23;;;;;;;3.17;2.30;;;7.60;1.00;;;;;;5054525;28;20498;-67
2024/03/02 02:17:51;;;;;;;3.73;2.30;;;7.60;1.00;;;;;;5054886;28;20466;-67
2024/03/02 02:20:18;;;;;;;4.70;2.57;;;7.60;1.00;;;;;;5054992;28;20463;-67
2024/03/02 02:22:57;;;;;;;5.60;2.40;;;7.60;1.00;;;;;;5055383;28;20469;-67
2024/03/02 02:25:24;;;;;;;3.90;2.70;;;7.60;1.00;;;;;;5054950;28;20526;-67
2024/03/02 02:27:51;;;;;;;4.40;2.40;;;7.60;1.00;;;;;;5055587;28;20557;-66
2024/03/02 02:30:23;;;;;;;5.13;2.50;;;7.70;1.00;;;;;;5055923;28;20561;-67
2024/03/02 02:32:49;;;;;;;3.80;2.23;;;7.70;1.00;;;;;;5054800;28;20756;-65
2024/03/02 02:35:17;;;;;;;4.27;2.20;;;7.80;1.00;;;;;;5054581;28;20465;-66
2024/03/02 02:37:45;;;;;;;4.47;2.40;;;7.80;1.00;;;;;;5054772;28;20958;-66
2024/03/02 02:40:14;;;;;;;2.80;2.00;;;7.80;1.00;;;;;;5054459;28;20905;-66
2024/03/02 02:42:41;;;;;;;3.20;2.30;;;7.80;1.00;;;;;;5054873;28;20476;-66
2024/03/02 02:45:10;;;;;;;2.83;2.23;;;7.80;1.00;;;;;;5054761;28;20958;-65
2024/03/02 02:47:37;;;;;;;3.67;2.30;;;7.80;1.00;;;;;;5054955;28;20473;-66
2024/03/02 02:50:08;;;;;;;2.80;2.20;;;7.90;99.90;;;;;;5055039;28;20943;-66
2024/03/02 02:52:36;;;;;;;4.80;2.67;;;7.90;99.90;;;;;;5054981;28;20494;-66
2024/03/02 02:55:05;;;;;;;3.23;2.40;;;7.90;99.90;;;;;;5054230;28;20502;-67
2024/03/02 02:57:35;;;;;;;2.70;2.30;;;7.90;99.90;;;;;;5054519;28;20459;-66
2024/03/02 03:00:09;;;;;;;3.70;2.10;;;7.90;99.90;;;;;;5054860;28;20519;-66
2024/03/02 03:02:38;;;;;;;3.93;2.60;;;7.90;99.90;;;;;;5054580;28;20468;-67
2024/03/02 03:05:07;;;;;;;3.47;2.33;;;7.90;99.90;;;;;;5054798;28;20465;-66
2024/03/02 03:07:36;;;;;;;5.73;3.00;;;7.90;99.90;;;;;;5054330;28;20458;-65
2024/03/02 03:10:04;;;;;;;3.93;2.33;;;7.90;99.90;;;;;;5054494;28;20561;-66
2024/03/02 03:12:33;;;;;;;3.33;2.50;;;7.90;99.90;;;;;;5054560;28;20557;-67
2024/03/02 03:15:00;;;;;;;3.90;2.40;;;7.90;99.90;;;;;;5053917;28;20502;-66
2024/03/02 03:17:28;;;;;;;3.03;2.20;;;7.90;99.90;;;;;;5053864;28;20794;-66
2024/03/02 03:19:55;;;;;;;4.83;2.30;;;7.90;99.90;;;;;;5054480;28;20753;-66
2024/03/02 03:22:23;;;;;;;4.03;2.30;;;7.90;99.90;;;;;;5054743;28;20462;-66
2024/03/02 03:24:50;;;;;;;3.10;1.83;;;7.90;99.90;;;;;;5054183;28;20503;-66
2024/03/02 03:27:17;;;;;;;3.83;2.70;;;7.90;99.90;;;;;;5053780;28;20505;-66
2024/03/02 03:29:46;;;;;;;2.90;2.40;;;7.90;99.90;;;;;;5054005;28;20458;-67
2024/03/02 03:32:13;;;;;;;3.30;2.10;;;7.80;99.90;;;;;;5054269;28;20557;-66
2024/03/02 03:34:41;;;;;;;3.60;2.33;;;7.80;99.90;;;;;;5054201;28;20512;-66
2024/03/02 03:37:08;;;;;;;4.03;2.17;;;7.80;99.90;;;;;;5053723;28;20462;-66
2024/03/02 03:39:36;;;;;;;2.80;2.10;;;7.90;99.90;;;;;;5054587;28;20827;-67
2024/03/02 03:42:04;;;;;;;3.03;2.33;;;7.80;99.90;;;;;;5054383;28;20458;-66
2024/03/02 03:44:31;;;;;;;2.90;2.40;;;7.90;99.90;;;;;;5054160;28;20458;-66
2024/03/02 03:47:00;;;;;;;3.57;2.30;;;7.90;99.90;;;;;;5054120;28;20550;-66
2024/03/02 03:49:28;;;;;;;5.27;2.50;;;7.90;99.90;;;;;;5053767;28;20475;-66
2024/03/02 03:51:55;;;;;;;3.27;2.00;;;7.90;99.90;;;;;;5054715;28;20469;-66
2024/03/02 03:54:22;;;;;;;4.60;2.40;;;8.00;99.90;;;;;;5057569;28;20537;-66
2024/03/02 03:56:49;;;;;;;3.80;2.23;;;7.90;99.90;;;;;;5057659;28;20493;-66
2024/03/02 03:59:16;;;;;;;4.50;2.20;;;7.90;99.90;;;;;;5057359;28;20553;-66
2024/03/02 04:01:43;;;;;;;2.67;2.00;;;7.90;99.90;;;;;;5057102;28;20548;-66
2024/03/02 04:04:12;;;;;;;4.57;2.33;;;7.90;99.90;;;;;;5057667;28;20946;-66
2024/03/02 04:06:39;;;;;;;5.40;2.70;;;7.90;99.90;;;;;;5057593;28;20505;-65
2024/03/02 04:09:07;;;;;;;2.97;2.47;;;7.90;99.90;;;;;;5057334;28;20498;-66
2024/03/02 04:11:34;;;;;;;3.30;2.20;;;7.90;99.90;;;;;;5057180;28;20557;-66
2024/03/02 04:14:01;;;;;;;3.17;2.23;;;7.90;99.90;;;;;;5056886;28;20589;-66
2024/03/02 04:16:28;;;;;;;4.13;2.40;;;7.90;99.90;;;;;;5057039;28;20468;-66
2024/03/02 04:18:56;;;;;;;4.00;2.67;;;7.90;99.90;;;;;;5056760;28;20462;-66
2024/03/02 04:21:25;;;;;;;5.67;2.37;;;7.90;1.00;;;;;;5056940;28;20462;-66
2024/03/02 04:23:52;;;;;;;3.43;2.47;;;7.90;1.00;;;;;;5056949;28;20458;-68
2024/03/02 04:26:22;;;;;;;3.57;2.23;;;7.80;99.90;;;;;;5057027;28;20474;-66
2024/03/02 04:28:49;;;;;;;3.90;2.50;;;7.90;99.90;;;;;;5057021;28;20470;-66
2024/03/02 04:31:17;;;;;;;4.37;2.30;;;7.90;99.90;;;;;;5056747;28;20543;-67
2024/03/02 04:33:44;;;;;;;4.27;2.90;;;7.90;99.90;;;;;;5056844;28;20725;-66
2024/03/02 04:36:11;;;;;;;3.30;2.63;;;7.90;99.90;;;;;;5056929;28;20549;-67
2024/03/02 04:38:40;;;;;;;4.37;3.00;;;7.80;99.90;;;;;;5056657;28;20472;-66
2024/03/02 04:41:07;;;;;;;4.17;3.50;;;7.80;1.00;;;;;;5056482;28;20549;-66
2024/03/02 04:43:35;;;;;;;4.13;2.60;;;7.80;1.00;;;;;;5056523;28;20477;-67
2024/03/02 04:46:03;;;;;;;3.10;2.30;;;7.80;99.90;;;;;;5056351;28;20553;-67
2024/03/02 04:48:30;;;;;;;6.30;2.80;;;7.80;1.00;;;;;;5056830;28;20755;-67
2024/03/02 04:50:57;;;;;;;5.20;2.60;;;7.70;1.00;;;;;;5056561;28;20736;-67
2024/03/02 04:53:25;;;;;;;8.17;3.93;;;7.60;1.00;;;;;;5056589;28;20541;-67
2024/03/02 04:56:19;;;;;;;3.60;2.90;;;7.60;1.00;;;;;;5055821;28;20554;-66
2024/03/02 04:58:46;;;;;;;3.60;2.60;;;7.50;1.00;;;;;;5056172;28;20454;-67
2024/03/02 05:01:13;;;;;;;6.83;3.20;;;7.50;1.00;;;;;;5056327;28;20769;-66
2024/03/02 05:03:40;;;;;;;3.77;3.00;;;7.50;1.00;;;;;;5055418;28;20459;-67
2024/03/02 05:06:08;;;;;;;5.33;2.53;;;7.40;1.00;;;;;;5055803;28;20455;-66
2024/03/02 05:08:35;;;;;;;4.77;3.20;;;7.40;1.00;;;;;;5055916;28;20458;-66
2024/03/02 05:13:45;;;;;;;5.60;2.90;;;7.30;1.00;;;;;;5054781;28;20948;-66
2024/03/02 05:16:13;;;;;;;5.10;3.27;;;7.30;1.00;;;;;;5055867;28;20494;-66
2024/03/02 05:18:40;;;;;;;5.07;2.77;;;7.20;1.00;;;;;;5056024;28;20463;-66
2024/03/02 05:21:07;;;;;;;5.47;3.20;;;7.20;1.00;;;;;;5056114;28;20458;-66
2024/03/02 05:23:34;;;;;;;5.17;3.03;;;7.20;8.10;;;;;;5055482;28;20462;-67
2024/03/02 05:26:01;;;;;;;6.70;3.33;;;7.10;16.00;;;;;;5055418;28;20459;-66
2024/03/02 05:28:30;;;;;;;3.90;2.80;;;7.00;55.10;;;;;;5055567;28;20474;-66
2024/03/02 05:30:57;;;;;;;4.10;3.13;;;7.00;93.70;;;;;;5056051;28;20462;-67
2024/03/02 05:33:25;;;;;;;3.57;3.27;;;6.90;99.90;;;;;;5055762;28;20919;-66
2024/03/02 05:35:52;;;;;;;5.00;3.27;;;6.90;99.90;;;;;;5056045;28;20511;-66
2024/03/02 05:38:19;;;;;;;5.13;3.70;;;6.90;99.90;;;;;;5055119;28;20561;-67
2024/03/02 05:40:46;;;;;;;8.73;3.67;;;6.90;99.90;;;;;;5055160;28;21083;-66
2024/03/02 05:43:13;;;;;;;4.17;3.40;;;6.90;99.90;;;;;;5054213;28;20484;-66
2024/03/02 05:45:42;;;;;;;5.63;4.03;;;6.80;99.90;;;;;;5055627;28;20553;-66
2024/03/02 05:48:10;;;;;;;5.77;4.00;;;6.80;99.90;;;;;;5055413;28;20436;-67
2024/03/02 05:50:37;;;;;;;3.77;3.13;;;6.80;99.90;;;;;;5053857;28;20462;-66
2024/03/02 05:53:04;;;;;;;6.80;3.67;;;6.70;99.90;;;;;;5053850;28;20793;-66
2024/03/02 05:55:32;;;;;;;5.57;4.13;;;6.70;99.90;;;;;;5053476;28;20843;-66
2024/03/02 05:58:15;;;;;;;5.03;4.03;;;6.60;99.90;;;;;;5053624;28;20462;-66
2024/03/02 06:00:44;;;;;;;5.63;4.23;;;6.60;99.90;;;;;;5053870;28;20462;-66
2024/03/02 06:03:11;;;;;;;4.43;4.00;;;6.60;99.90;;;;;;5053747;28;20463;-66
2024/03/02 06:05:38;;;;;;;5.10;3.93;;;6.60;99.90;;;;;;5054447;28;20510;-66
2024/03/02 06:08:06;;;;;;;5.30;3.90;;;6.60;99.90;;;;;;5054480;28;20739;-67
2024/03/02 06:10:33;;;;;;;7.23;4.83;;;6.60;99.90;;;;;;5054416;28;20478;-67
2024/03/02 06:13:00;;;;;;;5.37;3.87;;;6.60;99.90;;;;;;5054685;27;20459;-67
2024/03/02 06:15:28;;;;;;;7.10;4.50;;;6.60;99.90;;;;;;5054016;28;20977;-67
2024/03/02 06:17:56;;;;;;;6.60;4.77;;;6.60;99.90;;;;;;5054533;28;20553;-67
2024/03/02 06:20:23;;;;;;;9.20;4.40;;;6.50;99.90;;;;;;5054502;28;20497;-67
2024/03/02 06:22:51;;;;;;;7.63;4.47;;;6.50;99.90;;;;;;5054923;28;20463;-67
2024/03/02 06:25:18;;;;;;;5.07;4.10;;;6.50;99.90;;;;;;5054409;28;20493;-66
2024/03/02 06:27:46;;;;;;;6.43;4.67;;;6.50;99.90;;;;;;5054407;28;20466;-66
2024/03/02 06:30:14;;;;;;;5.00;3.97;;;6.50;99.90;;;;;;5054029;28;20938;-66
2024/03/02 06:32:41;;;;;;;5.27;3.93;;;6.50;1.00;;;;;;5053351;28;20455;-65
2024/03/02 06:35:10;;;;;;;5.87;4.47;;;6.50;1.00;;;;;;5052533;28;20517;-69
2024/03/02 06:37:37;;;;;;;8.07;5.17;;;6.50;1.00;;;;;;5052768;28;20505;-67
2024/03/02 06:40:07;;;;;;;5.20;4.13;;;6.50;1.00;;;;;;5053047;28;20489;-67
2024/03/02 06:42:34;;;;;;;4.97;4.47;;;6.40;1.00;;;;;;5052938;28;20457;-67
2024/03/02 06:45:02;;;;;;;8.10;5.20;;;6.40;1.00;;;;;;5052877;28;20482;-67
2024/03/02 06:47:29;;;;;;;10.43;5.83;;;6.50;1.00;;;;;;5053146;28;20501;-67
2024/03/02 06:49:58;;;;;;;5.20;4.23;;;6.50;1.00;;;;;;5053129;28;20526;-66
2024/03/02 06:52:26;;;;;;;5.77;4.90;;;6.50;1.00;;;;;;5054228;27;20548;-68
2024/03/02 06:54:54;;;;;;;7.67;4.90;;;6.60;1.00;;;;;;5054464;28;20506;-68
2024/03/02 06:57:21;;;;;;;11.17;9.10;;;6.60;1.00;;;;;;5053871;28;20497;-68
2024/03/02 06:59:51;;;;;;;10.40;7.10;;;6.60;1.00;;;;;;5053585;28;20467;-68
2024/03/02 07:02:18;;;;;;;12.20;8.97;;;6.70;1.00;;;;;;5053005;28;20462;-67
2024/03/02 07:04:46;;;;;;;12.37;9.73;;;6.70;1.00;;;;;;5052656;28;20507;-67
2024/03/02 07:07:13;;;;;;;14.97;11.47;;;6.80;1.00;;;;;;5052767;27;20462;-67
2024/03/02 07:09:42;;;;;;;10.63;7.50;;;6.80;1.00;;;;;;5052800;28;21218;-67
2024/03/02 07:12:09;;;;;;;7.60;6.30;;;6.90;1.00;;;;;;5053151;27;20466;-68
2024/03/02 07:15:11;;;;;;;9.00;6.60;;;6.90;1.00;;;;;;5053315;27;20875;-68
2024/03/02 07:17:38;;;;;;;6.13;4.90;;;7.00;1.00;;;;;;5054114;28;20466;-68
2024/03/02 07:20:08;;;;;;;9.33;6.53;;;7.10;99.90;;;;;;5054425;27;20463;-68
2024/03/02 07:22:37;;;;;;;9.03;6.83;;;7.10;99.90;;;;;;5054179;27;20469;-68
2024/03/02 07:25:07;;;;;;;10.00;6.53;;;7.20;99.90;;;;;;5053761;28;20750;-69
2024/03/02 07:27:35;;;;;;;15.20;9.50;;;7.20;99.90;;;;;;5053394;27;20565;-68
2024/03/02 07:30:03;;;;;;;9.17;5.70;;;7.30;99.90;;;;;;5054315;28;20462;-68
2024/03/02 07:32:30;;;;;;;7.90;6.03;;;7.40;99.90;;;;;;5054059;28;20979;-68
2024/03/02 07:34:57;;;;;;;7.40;6.50;;;7.50;99.90;;;;;;5053825;27;20454;-68
2024/03/02 07:37:25;;;;;;;5.87;4.83;;;7.60;99.90;;;;;;5054000;27;20511;-68
2024/03/02 07:39:52;;;;;;;8.53;5.20;;;7.80;99.90;;;;;;5053920;28;20469;-68
2024/03/02 07:42:21;;;;;;;7.00;4.97;;;8.00;99.90;;;;;;5053991;27;20465;-68
2024/03/02 07:44:51;;;;;;;5.60;4.90;;;8.10;30.60;;;;;;5053612;27;20458;-68
2024/03/02 07:47:18;;;;;;;6.93;5.20;;;8.10;29.30;;;;;;5053605;27;20497;-68
2024/03/02 07:49:47;;;;;;;6.40;4.47;;;8.30;1.00;;;;;;5053836;28;20530;-67
2024/03/02 07:52:14;;;;;;;5.20;3.93;;;8.50;1.00;;;;;;5053778;28;20490;-68
2024/03/02 07:54:41;;;;;;;5.53;4.13;;;8.60;1.00;;;;;;5053938;27;20943;-68
2024/03/02 07:57:10;;;;;;;6.00;3.73;;;8.70;1.00;;;;;;5053630;27;20814;-67
2024/03/02 07:59:39;;;;;;;6.73;4.50;;;8.90;1.00;;;;;;5053881;28;20469;-67
2024/03/02 08:02:08;;;;;;;6.77;4.07;;;8.80;1.00;;;;;;5053347;27;20466;-69
2024/03/02 08:04:35;;;;;;;5.03;3.87;;;8.90;1.00;;;;;;5052629;28;20488;-68
2024/03/02 08:07:03;;;;;;;5.27;3.97;;;9.10;1.00;;;;;;5052575;27;20526;-68
2024/03/02 08:09:30;;;;;;;7.03;3.67;;;9.30;99.90;;;;;;5052973;27;20462;-68
2024/03/02 08:11:58;;;;;;;5.37;3.33;;;9.40;99.90;;;;;;5053199;28;20603;-68
2024/03/02 08:14:25;;;;;;;4.73;3.33;;;9.50;99.90;;;;;;5052785;28;20458;-68
2024/03/02 08:16:54;;;;;;;4.73;3.50;;;9.60;99.90;;;;;;5053455;28;20958;-69
2024/03/02 08:19:22;;;;;;;6.07;2.97;;;9.80;99.90;;;;;;5053181;28;20458;-68
2024/03/02 08:21:49;;;;;;;4.87;3.70;;;9.80;99.90;;;;;;5053673;27;20879;-67
2024/03/02 08:24:17;;;;;;;4.90;3.93;;;9.70;35.90;;;;;;5053677;27;20953;-67
2024/03/02 08:26:44;;;;;;;7.03;3.23;;;9.70;94.40;;;;;;5053648;28;20863;-68
2024/03/02 08:29:12;;;;;;;4.70;2.70;;;9.70;99.90;;;;;;5053354;27;20906;-68
2024/03/02 08:31:40;;;;;;;5.17;3.60;;;9.50;99.90;;;;;;5053005;28;20462;-67
2024/03/02 08:34:09;;;;;;;4.30;3.30;;;9.40;99.90;;;;;;5053133;28;20463;-68
2024/03/02 08:36:36;;;;;;;4.07;3.30;;;9.40;99.90;;;;;;5053514;27;20542;-68
2024/03/02 08:39:14;;;;;;;5.87;3.10;;;9.60;99.90;;;;;;5055305;28;20818;-69
2024/03/02 08:41:43;;;;;;;4.00;3.10;;;10.00;99.90;;;;;;5056858;27;20560;-68
2024/03/02 08:44:10;;;;;;;3.60;2.97;;;10.20;47.10;;;;;;5056416;28;20462;-68
2024/03/02 08:46:38;;;;;;;3.70;2.90;;;10.20;1.00;;;;;;5056686;28;20454;-68
2024/03/02 08:49:06;;;;;;;4.37;3.27;;;10.20;1.00;;;;;;5056344;27;20796;-68
2024/03/02 08:51:34;;;;;;;4.47;3.43;;;10.20;1.00;;;;;;5055415;28;20450;-68
2024/03/02 08:54:03;;;;;;;5.63;3.13;;;10.40;1.00;;;;;;5054507;27;20519;-67
2024/03/02 08:56:31;;;;;;;3.53;2.80;;;10.70;1.00;;;;;;5054402;28;20597;-67
2024/03/02 08:58:59;;;;;;;4.17;2.90;;;10.90;1.00;;;;;;5054442;28;20462;-70
2024/03/02 09:01:26;;;;;;;6.43;3.60;;;11.10;1.00;;;;;;5054655;28;20549;-71
2024/03/02 09:03:54;;;;;;;4.43;2.93;;;11.40;1.00;;;;;;5055326;28;20485;-67
2024/03/02 09:06:21;;;;;;;5.00;3.10;;;11.60;1.00;;;;;;5056021;27;20454;-69
2024/03/02 09:08:51;;;;;;;3.30;2.50;;;11.80;1.00;;;;;;5055710;27;20967;-69
2024/03/02 09:11:19;;;;;;;3.83;2.97;;;11.90;99.90;;;;;;5054924;28;20879;-68
2024/03/02 09:13:47;;;;;;;4.37;2.67;;;12.10;99.90;;;;;;5054477;28;20469;-70
2024/03/02 09:16:14;;;;;;;4.20;2.87;;;12.10;99.90;;;;;;5054218;27;20498;-68
2024/03/02 09:18:42;;;;;;;3.30;2.90;;;12.10;99.90;;;;;;5054685;27;20901;-68
2024/03/02 09:21:10;;;;;;;3.60;2.77;;;12.10;99.90;;;;;;5054289;28;20465;-68
2024/03/02 09:23:38;;;;;;;3.67;2.97;;;12.30;99.90;;;;;;5054558;27;20467;-68
2024/03/02 09:26:08;;;;;;;4.50;3.30;;;12.50;99.90;;;;;;5055156;28;20568;-70
2024/03/02 09:28:35;;;;;;;3.00;2.23;;;12.50;99.90;;;;;;5056204;28;20491;-69
2024/03/02 09:31:03;;;;;;;3.13;2.60;;;12.60;99.90;;;;;;5055601;27;20465;-68
2024/03/02 09:33:30;;;;;;;3.37;2.00;;;12.60;99.90;;;;;;5055695;28;20490;-67
2024/03/02 09:35:57;;;;;;;3.30;2.63;;;12.60;99.90;;;;;;5055888;28;20943;-69
2024/03/02 09:38:24;;;;;;;3.50;2.80;;;12.60;99.90;;;;;;5055924;27;20466;-68
2024/03/02 09:40:52;;;;;;;3.20;2.33;;;12.80;99.90;;;;;;5055752;28;20455;-68
2024/03/02 09:43:21;;;;;;;2.87;2.10;;;12.80;99.90;;;;;;5054960;28;20451;-67
2024/03/02 09:45:49;;;;;;;6.23;2.40;;;12.80;99.90;;;;;;5034059;28;20557;-69
2024/03/02 09:48:18;;;;;;;3.20;2.40;;;12.70;99.90;;;;;;5035746;28;20824;-68
2024/03/02 09:50:46;;;;;;;2.50;2.30;;;12.70;99.90;;;;;;5034190;28;20467;-68
2024/03/02 09:53:15;;;;;;;3.10;2.10;;;12.80;99.90;;;;;;5034031;28;20895;-69
2024/03/02 09:55:45;;;;;;;3.13;2.27;;;12.90;99.90;;;;;;5033393;28;20788;-68
2024/03/02 09:58:13;;;;;;;3.07;2.10;;;13.00;99.90;;;;;;5034066;28;20459;-68
2024/03/02 10:00:42;;;;;;;3.13;2.23;;;13.30;99.90;;;;;;5034078;28;20865;-67
2024/03/02 10:03:13;;;;;;;3.40;2.10;;;13.50;99.90;;;;;;5040573;28;20454;-68
2024/03/02 10:05:40;;;;;;;4.50;2.10;;;13.90;99.90;;;;;;5054792;28;20462;-68
2024/03/02 10:08:08;;;;;;;3.17;2.30;;;13.80;99.90;;;;;;5055500;28;20469;-67
2024/03/02 10:10:39;;;;;;;3.20;2.50;;;13.70;99.90;;;;;;5055253;28;20466;-68
2024/03/02 10:13:08;;;;;;;2.37;2.17;;;13.50;80.40;;;;;;5054994;28;20561;-70
2024/03/02 10:15:36;;;;;;;2.77;2.10;;;13.40;89.70;;;;;;5055058;28;20458;-68
2024/03/02 10:18:06;;;;;;;3.43;2.00;;;13.50;53.40;;;;;;5054984;28;20557;-67
2024/03/02 10:20:34;;;;;;;2.73;2.30;;;13.60;43.30;;;;;;5055056;28;20469;-69
2024/03/02 10:23:12;;;;;;;2.93;2.40;;;13.70;54.20;;;;;;5054849;28;20515;-69
2024/03/02 10:25:40;;;;;;;3.50;2.60;;;13.70;21.10;;;;;;5055155;28;20545;-69
2024/03/02 10:28:07;;;;;;;4.17;2.37;;;13.70;28.10;;;;;;5054764;28;20463;-68
2024/03/02 10:30:35;;;;;;;3.60;1.97;;;13.70;1.00;;;;;;5055105;28;20490;-69
2024/03/02 10:33:06;;;;;;;3.00;2.37;;;13.80;2.10;;;;;;5054428;28;20458;-69
2024/03/02 10:35:36;;;;;;;2.90;2.47;;;14.20;1.00;;;;;;5054759;28;20955;-69
2024/03/02 10:38:06;;;;;;;4.33;2.40;;;14.40;1.00;;;;;;5054983;28;20503;-68
2024/03/02 10:40:34;;;;;;;3.00;2.33;;;14.60;1.00;;;;;;5055072;28;20461;-68
2024/03/02 10:43:05;;;;;;;3.10;2.00;;;14.60;1.00;;;;;;5055008;28;20939;-68
2024/03/02 10:45:33;;;;;;;3.37;2.20;;;14.30;1.00;;;;;;5054609;28;20552;-69
2024/03/02 10:48:02;;;;;;;3.77;2.47;;;14.40;1.00;;;;;;5054270;28;20507;-70
2024/03/02 10:50:32;;;;;;;3.10;2.00;;;14.50;1.00;;;;;;5054843;28;20892;-68
2024/03/02 10:52:59;;;;;;;3.47;2.27;;;14.50;1.00;;;;;;5054327;28;20750;-68
2024/03/02 10:55:27;;;;;;;3.50;2.30;;;14.70;1.00;;;;;;5053954;28;20478;-68
2024/03/02 10:57:56;;;;;;;4.90;2.97;;;14.70;1.00;;;;;;5054505;28;20580;-69
2024/03/02 11:00:29;;;;;;;2.97;2.67;;;14.70;1.00;;;;;;5054334;28;20520;-68
2024/03/02 11:02:58;;;;;;;2.77;2.27;;;14.80;1.00;;;;;;5054216;28;20462;-70
2024/03/02 11:05:29;;;;;;;5.13;2.50;;;14.90;1.00;;;;;;5053983;28;20458;-68
2024/03/02 11:08:04;;;;;;;2.83;2.13;;;15.00;1.00;;;;;;5054253;28;20835;-69
2024/03/02 11:10:37;;;;;;;3.50;2.13;;;14.90;1.00;;;;;;5054612;28;20824;-69
2024/03/02 11:13:10;;;;;;;2.87;2.57;;;15.00;1.00;;;;;;5054150;28;20516;-69
2024/03/02 11:15:38;;;;;;;2.60;2.30;;;15.00;1.00;;;;;;5070475;27;20537;-69
2024/03/02 11:18:08;;;;;;;2.63;2.20;;;15.10;1.00;;;;;;5054023;28;20494;-68
2024/03/02 11:20:39;;;;;;;3.23;2.50;;;15.20;1.00;;;;;;5076945;27;20459;-68
2024/03/02 11:23:09;;;;;;;3.27;2.30;;;15.30;1.00;;;;;;5069278;27;20767;-68
2024/03/02 11:25:39;;;;;;;2.97;1.73;;;15.30;1.00;;;;;;5032637;28;20908;-69
2024/03/02 11:28:09;;;;;;;2.60;1.90;;;15.50;1.00;;;;;;5032464;28;20523;-67
2024/03/02 11:30:55;;;;;;;4.20;2.23;;;15.70;1.00;;;;;;5032412;28;20463;-67
2024/03/02 11:33:29;;;;;;;2.80;2.37;;;15.40;1.00;;;;;;5032169;28;20970;-69
2024/03/02 11:35:58;;;;;;;2.20;2.00;;;15.60;1.00;;;;;;5032143;28;20535;-69
2024/03/02 11:38:30;;;;;;;2.40;2.20;;;15.90;1.00;;;;;;5032857;28;20765;-67
2024/03/02 11:40:57;;;;;;;2.67;1.90;;;16.10;1.00;;;;;;5037098;28;20465;-70
2024/03/02 11:43:29;;;;;;;3.60;2.10;;;16.00;1.00;;;;;;5052332;28;20463;-68
2024/03/02 11:46:00;;;;;;;3.23;2.03;;;16.00;99.90;;;;;;5052155;28;20931;-68
2024/03/02 11:48:27;;;;;;;2.40;2.20;;;16.20;99.90;;;;;;5052323;28;20465;-70
2024/03/02 11:50:58;;;;;;;2.80;2.20;;;16.40;99.90;;;;;;5051871;28;20458;-67
2024/03/02 11:53:29;;;;;;;3.13;2.10;;;16.40;99.90;;;;;;5053192;28;20501;-66
2024/03/02 11:55:57;;;;;;;3.60;2.30;;;16.30;99.90;;;;;;5053644;28;20994;-68
2024/03/02 11:58:26;;;;;;;3.30;2.00;;;16.40;99.90;;;;;;5053895;28;20517;-66
2024/03/02 12:00:55;;;;;;;3.57;2.43;;;16.50;99.90;;;;;;5054083;28;20458;-66
2024/03/02 12:03:25;;;;;;;4.20;2.60;;;16.30;99.90;;;;;;5053330;28;20469;-66
2024/03/02 12:05:53;;;;;;;2.77;2.53;;;16.20;99.90;;;;;;5053183;28;20465;-62
2024/03/02 12:08:21;;;;;;;3.33;1.77;;;16.20;99.90;;;;;;5052021;28;20458;-65
2024/03/02 12:11:00;;;;;;;3.00;2.43;;;16.00;99.90;;;;;;5052111;28;20457;-66
2024/03/02 12:13:28;;;;;;;3.43;2.80;;;15.90;99.90;;;;;;5053234;28;20560;-65
2024/03/02 12:15:56;;;;;;;3.20;2.27;;;16.00;99.90;;;;;;5055580;28;20499;-66
2024/03/02 12:18:24;;;;;;;2.80;2.10;;;16.00;99.90;;;;;;5055706;28;20522;-65
2024/03/02 12:20:56;;;;;;;3.20;2.37;;;15.60;99.90;;;;;;5056255;28;20460;-66
2024/03/02 12:23:23;;;;;;;3.50;2.67;;;15.40;99.90;;;;;;5059014;28;20458;-67
2024/03/02 12:25:52;;;;;;;2.43;1.70;;;15.40;99.90;;;;;;5058027;28;20496;-66
2024/03/02 12:28:21;;;;;;;2.57;1.60;;;15.60;99.90;;;;;;5057490;28;20518;-66
2024/03/02 12:30:49;;;;;;;3.07;1.90;;;15.50;99.90;;;;;;5056958;28;20458;-66
2024/03/02 12:33:18;;;;;;;2.73;1.87;;;15.50;99.90;;;;;;5056578;28;20457;-66
2024/03/02 12:35:46;;;;;;;2.13;1.93;;;15.50;99.90;;;;;;5056731;28;20943;-66
2024/03/02 12:38:14;;;;;;;3.00;2.50;;;15.50;99.90;;;;;;5056595;28;20525;-68
2024/03/02 12:40:41;;;;;;;4.50;2.70;;;15.40;99.90;;;;;;5056615;28;20458;-66
2024/03/02 12:43:09;;;;;;;2.60;2.10;;;15.20;99.90;;;;;;5056077;28;20462;-66
2024/03/02 12:45:38;;;;;;;3.90;2.60;;;14.90;99.90;;;;;;5056224;28;20494;-68
2024/03/02 12:48:06;;;;;;;4.20;2.17;;;14.80;99.90;;;;;;5055863;28;20450;-66
2024/03/02 12:50:34;;;;;;;2.70;2.17;;;14.60;99.90;;;;;;5055836;28;20748;-67
2024/03/02 12:53:02;;;;;;;3.13;2.20;;;14.50;99.90;;;;;;5056010;28;20537;-68
2024/03/02 12:55:30;;;;;;;3.60;2.20;;;14.40;99.90;;;;;;5055929;28;20486;-67
2024/03/02 12:57:58;;;;;;;2.23;1.90;;;14.40;99.90;;;;;;5055930;28;20501;-68
2024/03/02 13:00:26;;;;;;;5.70;2.80;;;14.30;99.90;;;;;;5056604;28;20470;-68
2024/03/02 13:03:01;;;;;;;3.23;2.10;;;14.40;99.90;;;;;;5056036;28;20462;-67
2024/03/02 13:05:32;;;;;;;2.70;1.90;;;14.30;99.90;;;;;;5056147;28;20466;-66
2024/03/02 13:08:00;;;;;;;2.20;2.00;;;14.20;99.90;;;;;;5056775;28;20458;-69